sensor_id;sensor_type;location;lat;lon;timestamp;pressure;altitude;pressure_sealevel;temperature;humidity
54439;BME280;40347;53.848;27.498;2022-08-03T00:03:32;1015.6;;;16.5;73.6
54439;BME280;40347;53.848;27.498;2022-08-03T00:08:32;1015.6;;;16.5;73.5
54439;BME280;40347;53.848;27.498;2022-08-03T00:13:32;1015.6;;;16.5;73.4
54439;BME280;40347;53.848;27.498;2022-08-03T00:18:32;1015.6;;;16.4;73.7
54439;BME280;40347;53.848;27.498;2022-08-03T00:23:32;1015.6;;;16.4;74.1
54439;BME280;40347;53.848;27.498;2022-08-03T00:28:32;1015.7;;;16.4;74.4
54439;BME280;40347;53.848;27.498;2022-08-03T00:33:32;1015.7;;;16.4;74.2
54439;BME280;40347;53.848;27.498;2022-08-03T00:38:32;1015.7;;;16.5;74
54439;BME280;40347;53.848;27.498;2022-08-03T00:43:32;1015.7;;;16.4;74.3
54439;BME280;40347;53.848;27.498;2022-08-03T00:48:32;1015.7;;;16.3;74.5
54439;BME280;40347;53.848;27.498;2022-08-03T00:53:33;1015.8;;;16.3;74.8
54439;BME280;40347;53.848;27.498;2022-08-03T00:58:32;1015.7;;;16.3;75.1
54439;BME280;40347;53.848;27.498;2022-08-03T01:03:32;1015.8;;;16.2;75.5
54439;BME280;40347;53.848;27.498;2022-08-03T01:08:37;1015.8;;;16.2;75.3
54439;BME280;40347;53.848;27.498;2022-08-03T01:13:35;1015.8;;;16.2;75.6
54439;BME280;40347;53.848;27.498;2022-08-03T01:23:34;1015.9;;;16.1;76
54439;BME280;40347;53.848;27.498;2022-08-03T01:33:34;1015.9;;;16;76.2
54439;BME280;40347;53.848;27.498;2022-08-03T01:38:34;1015.9;;;16.1;76.2
54439;BME280;40347;53.848;27.498;2022-08-03T01:43:32;1015.9;;;16;76.6
54439;BME280;40347;53.848;27.498;2022-08-03T01:48:32;1015.9;;;15.9;76.6
54439;BME280;40347;53.848;27.498;2022-08-03T01:53:32;1015.9;;;16;76.7
54439;BME280;40347;53.848;27.498;2022-08-03T01:58:32;1015.9;;;16.1;76.4
54439;BME280;40347;53.848;27.498;2022-08-03T02:03:33;1015.9;;;16;76.4
54439;BME280;40347;53.848;27.498;2022-08-03T02:08:32;1015.9;;;16;76.2
54439;BME280;40347;53.848;27.498;2022-08-03T02:13:33;1015.9;;;16;76.3
54439;BME280;40347;53.848;27.498;2022-08-03T02:18:32;1015.9;;;15.9;76.5
54439;BME280;40347;53.848;27.498;2022-08-03T02:23:32;1015.9;;;16;76.6
54439;BME280;40347;53.848;27.498;2022-08-03T02:28:33;1015.8;;;16;76.6
54439;BME280;40347;53.848;27.498;2022-08-03T02:33:40;1015.8;;;15.9;76.9
54439;BME280;40347;53.848;27.498;2022-08-03T02:38:33;1015.9;;;15.9;77
54439;BME280;40347;53.848;27.498;2022-08-03T02:43:32;1015.9;;;15.9;77.1
54439;BME280;40347;53.848;27.498;2022-08-03T02:48:32;1015.8;;;15.9;77.2
54439;BME280;40347;53.848;27.498;2022-08-03T02:53:32;1015.8;;;15.9;77.2
54439;BME280;40347;53.848;27.498;2022-08-03T02:58:32;1015.9;;;16;76.9
54439;BME280;40347;53.848;27.498;2022-08-03T03:03:32;1015.9;;;16;76.8
54439;BME280;40347;53.848;27.498;2022-08-03T03:08:32;1016;;;16;76.6
54439;BME280;40347;53.848;27.498;2022-08-03T03:13:32;1016;;;16;76.6
54439;BME280;40347;53.848;27.498;2022-08-03T03:18:33;1016;;;16.1;76.5
54439;BME280;40347;53.848;27.498;2022-08-03T03:23:33;1016;;;16.2;76.4
54439;BME280;40347;53.848;27.498;2022-08-03T03:28:32;1016.1;;;16.4;75.9
54439;BME280;40347;53.848;27.498;2022-08-03T03:33:32;1016.1;;;16.5;75.4
54439;BME280;40347;53.848;27.498;2022-08-03T03:38:32;1016.2;;;16.6;75
54439;BME280;40347;53.848;27.498;2022-08-03T03:43:32;1016.2;;;16.6;75
54439;BME280;40347;53.848;27.498;2022-08-03T03:48:32;1016.2;;;16.6;75
54439;BME280;40347;53.848;27.498;2022-08-03T03:53:32;1016.2;;;16.8;74.8
54439;BME280;40347;53.848;27.498;2022-08-03T03:58:32;1016.2;;;16.9;74.4
54439;BME280;40347;53.848;27.498;2022-08-03T04:03:32;1016.2;;;17;74.1
54439;BME280;40347;53.848;27.498;2022-08-03T04:08:32;1016.2;;;17;73.8
54439;BME280;40347;53.848;27.498;2022-08-03T04:13:33;1016.2;;;17.2;73.7
54439;BME280;40347;53.848;27.498;2022-08-03T04:18:33;1016.2;;;17.3;73.4
54439;BME280;40347;53.848;27.498;2022-08-03T04:23:33;1016.3;;;17.5;73
54439;BME280;40347;53.848;27.498;2022-08-03T04:28:32;1016.3;;;17.8;72.2
54439;BME280;40347;53.848;27.498;2022-08-03T04:33:32;1016.3;;;17.9;71.8
54439;BME280;40347;53.848;27.498;2022-08-03T04:38:34;1016.3;;;18.1;71.6
54439;BME280;40347;53.848;27.498;2022-08-03T04:43:32;1016.3;;;18.2;70.9
54439;BME280;40347;53.848;27.498;2022-08-03T04:48:32;1016.3;;;18.4;70.7
54439;BME280;40347;53.848;27.498;2022-08-03T04:53:32;1016.3;;;18.7;69.9
54439;BME280;40347;53.848;27.498;2022-08-03T04:58:32;1016.3;;;19.1;68.7
54439;BME280;40347;53.848;27.498;2022-08-03T05:03:32;1016.3;;;19.8;66.6
54439;BME280;40347;53.848;27.498;2022-08-03T05:08:32;1016.4;;;20.1;65.2
54439;BME280;40347;53.848;27.498;2022-08-03T05:13:32;1016.5;;;20.2;64.5
54439;BME280;40347;53.848;27.498;2022-08-03T05:18:32;1016.5;;;20.2;64
54439;BME280;40347;53.848;27.498;2022-08-03T05:23:32;1016.5;;;20.3;63.3
54439;BME280;40347;53.848;27.498;2022-08-03T05:28:32;1016.6;;;20.5;62.9
54439;BME280;40347;53.848;27.498;2022-08-03T05:33:32;1016.6;;;20.9;60.7
54439;BME280;40347;53.848;27.498;2022-08-03T05:38:32;1016.6;;;21.1;59.8
54439;BME280;40347;53.848;27.498;2022-08-03T05:43:32;1016.6;;;20.9;59.6
54439;BME280;40347;53.848;27.498;2022-08-03T05:48:32;1016.6;;;20.8;59.4
54439;BME280;40347;53.848;27.498;2022-08-03T05:53:32;1016.5;;;20.7;59.8
54439;BME280;40347;53.848;27.498;2022-08-03T05:58:32;1016.6;;;20.7;60.4
54439;BME280;40347;53.848;27.498;2022-08-03T06:03:32;1016.6;;;20.7;59.9
54439;BME280;40347;53.848;27.498;2022-08-03T06:08:32;1016.6;;;20.8;59.4
54439;BME280;40347;53.848;27.498;2022-08-03T06:13:32;1016.6;;;20.9;59.2
54439;BME280;40347;53.848;27.498;2022-08-03T06:18:32;1016.7;;;21;59.1
54439;BME280;40347;53.848;27.498;2022-08-03T06:23:32;1016.7;;;21;58.8
54439;BME280;40347;53.848;27.498;2022-08-03T06:28:32;1016.8;;;21.1;58.9
54439;BME280;40347;53.848;27.498;2022-08-03T06:33:32;1016.8;;;21.2;59.1
54439;BME280;40347;53.848;27.498;2022-08-03T06:38:32;1016.8;;;21.3;58.7
54439;BME280;40347;53.848;27.498;2022-08-03T06:43:32;1016.8;;;21.5;58.2
54439;BME280;40347;53.848;27.498;2022-08-03T06:48:32;1016.9;;;21.5;57.7
54439;BME280;40347;53.848;27.498;2022-08-03T06:53:32;1016.9;;;21.7;57.9
54439;BME280;40347;53.848;27.498;2022-08-03T06:58:32;1016.8;;;21.8;57
54439;BME280;40347;53.848;27.498;2022-08-03T07:03:32;1016.8;;;22;56.9
54439;BME280;40347;53.848;27.498;2022-08-03T07:08:32;1016.8;;;22.2;56.1
54439;BME280;40347;53.848;27.498;2022-08-03T07:13:32;1016.8;;;22.3;55.2
54439;BME280;40347;53.848;27.498;2022-08-03T07:18:32;1016.8;;;22.4;54.8
54439;BME280;40347;53.848;27.498;2022-08-03T07:23:32;1016.8;;;22.7;54.2
54439;BME280;40347;53.848;27.498;2022-08-03T07:28:32;1016.8;;;22.8;54
54439;BME280;40347;53.848;27.498;2022-08-03T07:33:32;1016.8;;;22.4;53.5
54439;BME280;40347;53.848;27.498;2022-08-03T07:38:33;1016.9;;;22.1;55.1
54439;BME280;40347;53.848;27.498;2022-08-03T07:43:32;1016.9;;;22;55.5
54439;BME280;40347;53.848;27.498;2022-08-03T07:48:32;1016.9;;;22;54.8
54439;BME280;40347;53.848;27.498;2022-08-03T07:53:32;1016.9;;;22.1;55
54439;BME280;40347;53.848;27.498;2022-08-03T07:58:34;1016.9;;;22.3;54.3
54439;BME280;40347;53.848;27.498;2022-08-03T08:03:32;1016.8;;;22.5;53.1
54439;BME280;40347;53.848;27.498;2022-08-03T08:08:32;1016.8;;;22.6;52.6
54439;BME280;40347;53.848;27.498;2022-08-03T08:13:32;1016.8;;;22.6;52.2
54439;BME280;40347;53.848;27.498;2022-08-03T08:18:32;1016.8;;;22.7;52.2
54439;BME280;40347;53.848;27.498;2022-08-03T08:23:32;1016.8;;;22.9;52
54439;BME280;40347;53.848;27.498;2022-08-03T08:28:32;1016.8;;;23.1;51.7
54439;BME280;40347;53.848;27.498;2022-08-03T08:33:32;1016.9;;;23.4;51.3
54439;BME280;40347;53.848;27.498;2022-08-03T08:38:33;1016.9;;;23.2;51
54439;BME280;40347;53.848;27.498;2022-08-03T08:43:32;1016.9;;;23.1;50.6
54439;BME280;40347;53.848;27.498;2022-08-03T08:48:32;1016.9;;;23;50.1
54439;BME280;40347;53.848;27.498;2022-08-03T08:53:33;1016.9;;;23;50.5
54439;BME280;40347;53.848;27.498;2022-08-03T08:58:34;1016.9;;;23.2;50.9
54439;BME280;40347;53.848;27.498;2022-08-03T09:03:32;1016.9;;;23.2;49.2
54439;BME280;40347;53.848;27.498;2022-08-03T09:08:32;1017;;;23.2;49.6
54439;BME280;40347;53.848;27.498;2022-08-03T09:13:32;1017;;;23.1;49.1
54439;BME280;40347;53.848;27.498;2022-08-03T09:18:32;1017;;;23.2;49.4
54439;BME280;40347;53.848;27.498;2022-08-03T09:23:48;1016.9;;;23.2;49.7
54439;BME280;40347;53.848;27.498;2022-08-03T09:28:34;1017;;;23.5;50.2
54439;BME280;40347;53.848;27.498;2022-08-03T09:33:32;1017;;;23.7;49.3
54439;BME280;40347;53.848;27.498;2022-08-03T09:38:32;1017;;;23.7;48.5
54439;BME280;40347;53.848;27.498;2022-08-03T09:43:37;1017;;;23.7;48.4
54439;BME280;40347;53.848;27.498;2022-08-03T09:48:32;1017;;;23.7;48.4
54439;BME280;40347;53.848;27.498;2022-08-03T09:53:40;1017;;;23.7;48.9
54439;BME280;40347;53.848;27.498;2022-08-03T09:58:32;1017;;;23.7;47.1
54439;BME280;40347;53.848;27.498;2022-08-03T10:03:33;1016.9;;;23.8;47.1
54439;BME280;40347;53.848;27.498;2022-08-03T10:08:32;1017;;;23.9;47.6
54439;BME280;40347;53.848;27.498;2022-08-03T10:13:32;1017;;;24.1;46.8
54439;BME280;40347;53.848;27.498;2022-08-03T10:18:32;1016.9;;;24.1;47.2
54439;BME280;40347;53.848;27.498;2022-08-03T10:23:33;1016.9;;;24.2;47.7
54439;BME280;40347;53.848;27.498;2022-08-03T10:28:33;1016.9;;;24;47.1
54439;BME280;40347;53.848;27.498;2022-08-03T10:33:33;1016.9;;;23.9;47.2
54439;BME280;40347;53.848;27.498;2022-08-03T10:38:34;1016.9;;;23.9;47
54439;BME280;40347;53.848;27.498;2022-08-03T10:43:33;1016.8;;;24.1;46.3
54439;BME280;40347;53.848;27.498;2022-08-03T10:48:32;1016.9;;;24.1;46
54439;BME280;40347;53.848;27.498;2022-08-03T10:53:33;1016.8;;;24.1;46.9
54439;BME280;40347;53.848;27.498;2022-08-03T11:03:32;1016.7;;;24.5;45.4
54439;BME280;40347;53.848;27.498;2022-08-03T11:08:33;1016.7;;;24.6;44.3
54439;BME280;40347;53.848;27.498;2022-08-03T11:13:32;1016.7;;;24.7;44.2
54439;BME280;40347;53.848;27.498;2022-08-03T11:18:32;1016.7;;;24.9;43.9
54439;BME280;40347;53.848;27.498;2022-08-03T11:23:47;1016.7;;;25;42.8
54439;BME280;40347;53.848;27.498;2022-08-03T11:28:32;1016.6;;;25;42
54439;BME280;40347;53.848;27.498;2022-08-03T11:33:32;1016.6;;;25.2;42.7
54439;BME280;40347;53.848;27.498;2022-08-03T11:38:32;1016.6;;;25.4;43.8
54439;BME280;40347;53.848;27.498;2022-08-03T11:48:33;1016.5;;;25.9;42.8
54439;BME280;40347;53.848;27.498;2022-08-03T11:53:32;1016.5;;;25.9;42.4
54439;BME280;40347;53.848;27.498;2022-08-03T11:58:32;1016.6;;;25.9;41.1
54439;BME280;40347;53.848;27.498;2022-08-03T12:03:34;1016.5;;;25.8;41.8
54439;BME280;40347;53.848;27.498;2022-08-03T12:08:32;1016.5;;;25.8;42.3
54439;BME280;40347;53.848;27.498;2022-08-03T12:13:36;1016.5;;;25.8;42
54439;BME280;40347;53.848;27.498;2022-08-03T12:18:32;1016.5;;;25.9;42.2
54439;BME280;40347;53.848;27.498;2022-08-03T12:23:32;1016.4;;;25.9;43.2
54439;BME280;40347;53.848;27.498;2022-08-03T12:28:32;1016.5;;;25.6;42.5
54439;BME280;40347;53.848;27.498;2022-08-03T12:33:48;1016.5;;;25.3;42.6
54439;BME280;40347;53.848;27.498;2022-08-03T12:38:33;1016.5;;;25.3;42.4
54439;BME280;40347;53.848;27.498;2022-08-03T12:43:32;1016.4;;;25.3;42.6
54439;BME280;40347;53.848;27.498;2022-08-03T12:48:32;1016.4;;;25.4;42.5
54439;BME280;40347;53.848;27.498;2022-08-03T12:53:32;1016.3;;;25.6;42.6
54439;BME280;40347;53.848;27.498;2022-08-03T12:58:33;1016.3;;;25.9;43.4
54439;BME280;40347;53.848;27.498;2022-08-03T13:03:40;1016.3;;;26;42.2
54439;BME280;40347;53.848;27.498;2022-08-03T13:08:32;1016.3;;;25.8;42.2
54439;BME280;40347;53.848;27.498;2022-08-03T13:13:39;1016.3;;;25.7;42.9
54439;BME280;40347;53.848;27.498;2022-08-03T13:18:32;1016.3;;;25.8;43.3
54439;BME280;40347;53.848;27.498;2022-08-03T13:23:32;1016.2;;;25.9;43.4
54439;BME280;40347;53.848;27.498;2022-08-03T13:28:32;1016.2;;;26.1;42.5
54439;BME280;40347;53.848;27.498;2022-08-03T13:33:32;1016.1;;;26.3;42.5
54439;BME280;40347;53.848;27.498;2022-08-03T13:38:32;1016.1;;;26.4;43.3
54439;BME280;40347;53.848;27.498;2022-08-03T13:43:32;1016.1;;;26.3;43.3
54439;BME280;40347;53.848;27.498;2022-08-03T13:48:32;1016.1;;;26.3;43.3
54439;BME280;40347;53.848;27.498;2022-08-03T13:53:32;1016.1;;;26.3;42.9
54439;BME280;40347;53.848;27.498;2022-08-03T13:58:32;1016;;;26.2;42.6
54439;BME280;40347;53.848;27.498;2022-08-03T14:03:32;1016.1;;;25.8;42.3
54439;BME280;40347;53.848;27.498;2022-08-03T14:08:32;1016;;;25.8;42.5
54439;BME280;40347;53.848;27.498;2022-08-03T14:13:32;1016;;;25.8;40.6
54439;BME280;40347;53.848;27.498;2022-08-03T14:18:32;1016;;;25.9;41.4
54439;BME280;40347;53.848;27.498;2022-08-03T14:23:32;1016;;;25.9;42.3
54439;BME280;40347;53.848;27.498;2022-08-03T14:28:32;1016;;;25.7;42.1
54439;BME280;40347;53.848;27.498;2022-08-03T14:33:32;1016;;;25.6;42.6
54439;BME280;40347;53.848;27.498;2022-08-03T14:38:32;1016;;;25.4;42.6
54439;BME280;40347;53.848;27.498;2022-08-03T14:43:32;1016;;;25.3;43.5
54439;BME280;40347;53.848;27.498;2022-08-03T14:48:32;1016;;;25.3;43.4
54439;BME280;40347;53.848;27.498;2022-08-03T14:53:32;1016;;;25.5;43.7
54439;BME280;40347;53.848;27.498;2022-08-03T14:58:32;1016;;;25.8;43.4
54439;BME280;40347;53.848;27.498;2022-08-03T15:03:32;1016;;;25.8;43.6
54439;BME280;40347;53.848;27.498;2022-08-03T15:08:32;1016;;;25.4;44.5
54439;BME280;40347;53.848;27.498;2022-08-03T15:13:32;1016;;;25.1;45
54439;BME280;40347;53.848;27.498;2022-08-03T15:18:32;1016.1;;;25.1;44.9
54439;BME280;40347;53.848;27.498;2022-08-03T15:23:32;1016.1;;;25.1;44.8
54439;BME280;40347;53.848;27.498;2022-08-03T15:28:32;1016.1;;;24.8;44.4
54439;BME280;40347;53.848;27.498;2022-08-03T15:33:32;1016.1;;;24.6;44.4
54439;BME280;40347;53.848;27.498;2022-08-03T15:38:32;1016.1;;;24.4;44.9
54439;BME280;40347;53.848;27.498;2022-08-03T15:43:32;1016.1;;;24.3;46
54439;BME280;40347;53.848;27.498;2022-08-03T15:48:32;1016.1;;;24.3;46.8
54439;BME280;40347;53.848;27.498;2022-08-03T15:53:32;1016;;;24.2;47.3
54439;BME280;40347;53.848;27.498;2022-08-03T15:58:32;1016;;;24.2;47.8
54439;BME280;40347;53.848;27.498;2022-08-03T16:03:32;1016;;;24.1;47.6
54439;BME280;40347;53.848;27.498;2022-08-03T16:08:32;1016;;;24.2;47.4
54439;BME280;40347;53.848;27.498;2022-08-03T16:13:32;1016;;;24.1;47.2
54439;BME280;40347;53.848;27.498;2022-08-03T16:18:32;1016;;;24.1;47.4
54439;BME280;40347;53.848;27.498;2022-08-03T16:23:32;1016;;;24;47.6
54439;BME280;40347;53.848;27.498;2022-08-03T16:28:32;1016;;;24;47.7
54439;BME280;40347;53.848;27.498;2022-08-03T16:33:32;1016.1;;;23.9;47.7
54439;BME280;40347;53.848;27.498;2022-08-03T16:38:32;1016.1;;;23.8;47.8
54439;BME280;40347;53.848;27.498;2022-08-03T16:43:32;1016.1;;;23.7;48.2
54439;BME280;40347;53.848;27.498;2022-08-03T16:48:32;1016.1;;;23.7;48.5
54439;BME280;40347;53.848;27.498;2022-08-03T16:53:32;1016.2;;;23.5;48.9
54439;BME280;40347;53.848;27.498;2022-08-03T16:58:32;1016.2;;;23.4;49
54439;BME280;40347;53.848;27.498;2022-08-03T17:03:32;1016.3;;;23.4;49.2
54439;BME280;40347;53.848;27.498;2022-08-03T17:08:32;1016.3;;;23.4;49.6
54439;BME280;40347;53.848;27.498;2022-08-03T17:13:32;1016.3;;;23.3;50
54439;BME280;40347;53.848;27.498;2022-08-03T17:18:34;1016.4;;;23.2;50.2
54439;BME280;40347;53.848;27.498;2022-08-03T17:23:36;1016.4;;;23.2;50.4
54439;BME280;40347;53.848;27.498;2022-08-03T17:28:34;1016.4;;;23.2;50.8
54439;BME280;40347;53.848;27.498;2022-08-03T17:33:32;1016.4;;;23.2;51.3
54439;BME280;40347;53.848;27.498;2022-08-03T17:38:32;1016.5;;;23.1;51.3
54439;BME280;40347;53.848;27.498;2022-08-03T17:43:32;1016.5;;;23;51.5
54439;BME280;40347;53.848;27.498;2022-08-03T17:48:32;1016.6;;;22.9;51.8
54439;BME280;40347;53.848;27.498;2022-08-03T17:53:35;1016.6;;;22.8;52.2
54439;BME280;40347;53.848;27.498;2022-08-03T17:58:36;1016.7;;;22.8;52.5
54439;BME280;40347;53.848;27.498;2022-08-03T18:03:36;1016.8;;;22.8;52.6
54439;BME280;40347;53.848;27.498;2022-08-03T18:08:33;1016.9;;;22.8;52.9
54439;BME280;40347;53.848;27.498;2022-08-03T18:13:38;1016.9;;;22.6;53.6
54439;BME280;40347;53.848;27.498;2022-08-03T18:18:37;1017;;;22.5;53.6
54439;BME280;40347;53.848;27.498;2022-08-03T18:23:32;1017;;;22.3;54.7
54439;BME280;40347;53.848;27.498;2022-08-03T18:28:33;1017.1;;;22.1;55.5
54439;BME280;40347;53.848;27.498;2022-08-03T18:33:33;1017.2;;;22;55.7
54439;BME280;40347;53.848;27.498;2022-08-03T18:38:32;1017.3;;;22;55.5
54439;BME280;40347;53.848;27.498;2022-08-03T18:43:32;1017.3;;;21.7;56.5
54439;BME280;40347;53.848;27.498;2022-08-03T18:48:34;1017.3;;;21.5;57.1
54439;BME280;40347;53.848;27.498;2022-08-03T18:54:05;1017.3;;;21.3;57.7
54439;BME280;40347;53.848;27.498;2022-08-03T18:58:36;1017.3;;;21.2;58.2
54439;BME280;40347;53.848;27.498;2022-08-03T19:03:33;1017.3;;;21.2;58.5
54439;BME280;40347;53.848;27.498;2022-08-03T19:08:36;1017.3;;;21.1;58.7
54439;BME280;40347;53.848;27.498;2022-08-03T19:13:34;1017.4;;;21;59.3
54439;BME280;40347;53.848;27.498;2022-08-03T19:18:32;1017.4;;;20.9;59.4
54439;BME280;40347;53.848;27.498;2022-08-03T19:23:32;1017.4;;;20.9;59.8
54439;BME280;40347;53.848;27.498;2022-08-03T19:28:32;1017.4;;;20.8;59.9
54439;BME280;40347;53.848;27.498;2022-08-03T19:33:33;1017.4;;;20.9;59.4
54439;BME280;40347;53.848;27.498;2022-08-03T19:38:32;1017.4;;;20.8;59.7
54439;BME280;40347;53.848;27.498;2022-08-03T19:43:34;1017.4;;;20.7;60.2
54439;BME280;40347;53.848;27.498;2022-08-03T19:48:32;1017.4;;;20.6;60.4
54439;BME280;40347;53.848;27.498;2022-08-03T19:53:32;1017.4;;;20.7;60.7
54439;BME280;40347;53.848;27.498;2022-08-03T19:58:32;1017.4;;;20.7;60.9
54439;BME280;40347;53.848;27.498;2022-08-03T20:03:32;1017.4;;;20.7;60.6
54439;BME280;40347;53.848;27.498;2022-08-03T20:08:32;1017.3;;;20.7;60.3
54439;BME280;40347;53.848;27.498;2022-08-03T20:13:32;1017.3;;;20.6;60.3
54439;BME280;40347;53.848;27.498;2022-08-03T20:18:32;1017.4;;;20.6;60.6
54439;BME280;40347;53.848;27.498;2022-08-03T20:23:32;1017.4;;;20.6;61
54439;BME280;40347;53.848;27.498;2022-08-03T20:28:49;1017.4;;;20.6;60.9
54439;BME280;40347;53.848;27.498;2022-08-03T20:33:32;1017.5;;;20.6;60.9
54439;BME280;40347;53.848;27.498;2022-08-03T20:38:32;1017.5;;;20.5;61.6
54439;BME280;40347;53.848;27.498;2022-08-03T20:43:32;1017.5;;;20.3;61.7
54439;BME280;40347;53.848;27.498;2022-08-03T20:48:33;1017.5;;;20.2;61.6
54439;BME280;40347;53.848;27.498;2022-08-03T20:53:32;1017.5;;;20.2;61.8
54439;BME280;40347;53.848;27.498;2022-08-03T20:58:32;1017.5;;;20.1;62.1
54439;BME280;40347;53.848;27.498;2022-08-03T21:03:32;1017.5;;;20;62
54439;BME280;40347;53.848;27.498;2022-08-03T21:08:32;1017.5;;;20;62.1
54439;BME280;40347;53.848;27.498;2022-08-03T21:14:06;1017.5;;;19.9;62.6
54439;BME280;40347;53.848;27.498;2022-08-03T21:18:34;1017.5;;;19.8;62.9
54439;BME280;40347;53.848;27.498;2022-08-03T21:23:32;1017.5;;;19.8;63.1
54439;BME280;40347;53.848;27.498;2022-08-03T21:28:32;1017.5;;;19.7;63.6
54439;BME280;40347;53.848;27.498;2022-08-03T21:33:32;1017.4;;;19.7;63.5
54439;BME280;40347;53.848;27.498;2022-08-03T21:38:33;1017.4;;;19.6;63.5
54439;BME280;40347;53.848;27.498;2022-08-03T21:43:33;1017.4;;;19.6;63.9
54439;BME280;40347;53.848;27.498;2022-08-03T21:48:40;1017.4;;;19.5;64.3
54439;BME280;40347;53.848;27.498;2022-08-03T21:53:32;1017.4;;;19.5;64.2
54439;BME280;40347;53.848;27.498;2022-08-03T21:58:37;1017.4;;;19.4;64.7
54439;BME280;40347;53.848;27.498;2022-08-03T22:03:32;1017.5;;;19.4;65.1
54439;BME280;40347;53.848;27.498;2022-08-03T22:08:33;1017.5;;;19.3;65.5
54439;BME280;40347;53.848;27.498;2022-08-03T22:13:32;1017.5;;;19.2;66
54439;BME280;40347;53.848;27.498;2022-08-03T22:18:36;1017.5;;;19.2;65.7
54439;BME280;40347;53.848;27.498;2022-08-03T22:23:34;1017.5;;;19.2;65.9
54439;BME280;40347;53.848;27.498;2022-08-03T22:28:32;1017.5;;;19.1;66
54439;BME280;40347;53.848;27.498;2022-08-03T22:33:32;1017.6;;;19;66.5
54439;BME280;40347;53.848;27.498;2022-08-03T22:38:32;1017.6;;;18.9;66.4
54439;BME280;40347;53.848;27.498;2022-08-03T22:43:32;1017.6;;;18.9;66.7
54439;BME280;40347;53.848;27.498;2022-08-03T22:48:32;1017.5;;;18.8;67.4
54439;BME280;40347;53.848;27.498;2022-08-03T22:53:32;1017.5;;;18.9;67
54439;BME280;40347;53.848;27.498;2022-08-03T22:58:32;1017.5;;;18.7;67.5
54439;BME280;40347;53.848;27.498;2022-08-03T23:03:33;1017.5;;;18.6;67.4
54439;BME280;40347;53.848;27.498;2022-08-03T23:08:32;1017.6;;;18.6;68
54439;BME280;40347;53.848;27.498;2022-08-03T23:13:32;1017.6;;;18.5;68.6
54439;BME280;40347;53.848;27.498;2022-08-03T23:18:33;1017.6;;;18.5;68.4
54439;BME280;40347;53.848;27.498;2022-08-03T23:23:32;1017.6;;;18.5;68.5
54439;BME280;40347;53.848;27.498;2022-08-03T23:28:32;1017.6;;;18.4;68.8
54439;BME280;40347;53.848;27.498;2022-08-03T23:33:32;1017.6;;;18.4;68.9
54439;BME280;40347;53.848;27.498;2022-08-03T23:38:34;1017.6;;;18.4;69
54439;BME280;40347;53.848;27.498;2022-08-03T23:43:34;1017.6;;;18.4;69
54439;BME280;40347;53.848;27.498;2022-08-03T23:48:32;1017.6;;;18.3;69.4
54439;BME280;40347;53.848;27.498;2022-08-03T23:53:34;1017.6;;;18.3;69.3
54439;BME280;40347;53.848;27.498;2022-08-03T23:58:44;1017.6;;;18.2;70
